Highland Park, NJ

11:22 PM EST on January 29, 2015 (GMT -0500)
River Road | Change Station
CLOSE
Current Station
Personal Weather Station
Location: Highland Park, NJ
Elevation: 46 ft
Nearby Weather Stations
Active Advisory: Special Statement Active Notice: Public Information Statement

Elev 46 ft 40.50 °N, 74.44 °W | Updated 10 seconds ago

Overcast
Overcast
30.6 °F
Feels Like 31 °F
N
0.0
Wind Variable Wind from East
Gusts 1.6 mph

Today
High -- | Low -- °F
--% Chance of Precip.
Yesterday
High -- | Low -- °F
Precip. -- in
7:10 AM 5:11 PM
Waxing Gibbous, 79% visible
Pressure 30.04 in
Visibility 2.5 miles
Clouds Mostly Cloudy 1000 ft
Mostly Cloudy 1400 ft
Overcast 2400 ft
Windchill 31 °F
Dew Point 25 °F
Humidity 79%
Rainfall 0.00 in
Snow Depth Not available.
UV 0 out of 12
Pollen .10 out of 12
Air Quality Not available.
Flu Activity Not available.
METAR KLDJ 300415Z AUTO 00000KT 2 1/2SM RA BKN010 BKN014 OVC024 02/M01 A3004 RMK AO2 T00181015

More Conditions Fewer Conditions

Pressure 30.04 in
Visibility 2.5 miles
Clouds Mostly Cloudy 1000 ft
Mostly Cloudy 1400 ft
Overcast 2400 ft
Windchill 31 °F
Dew Point 25 °F
Humidity 79%
Rainfall 0.00 in
Snow Depth Not available.
UV 0 out of 12
Pollen .10 out of 12
Air Quality Not available.
Flu Activity Not available.
METAR KLDJ 300415Z AUTO 00000KT 2 1/2SM RA BKN010 BKN014 OVC024 02/M01 A3004 RMK AO2 T00181015

More Conditions Fewer Conditions

Nowcast | as of 10:52 PM EST on January 29, 2015

Areas of snow may lower visibilities and create a few areas of slick travel overnight. The most snow will occur across northeast Pennsylvania and the northern half of New Jersey. Use caution when traveling overnight.

×

10-Day Weather Forecast

Almanac

Astronomy

Jan. 29, 2015 Rise Set
Actual Time
Civil Twilight
Nautical Twilight
Astronomical Twilight
Moon
Length of Visible Light
Length of Day
Tomorrow will be .
, % of the Moon is Illuminated

Today's Extremes

State Highs State Lows

Community

WunderPhotos

Upload Photos

1,791,706 photos uploaded!

WunderBlogs® & News

Nearby

Air Quality

  Air Quality AQ Index Pollutant
Not available.

Snow Depth

Station Depth Elevation

Earthquake Activity

City Distance Mag. Time & Date
Minimum magnitude displayed is 2.5.

Coastal Water Temperatures

Place Temperature

Nearby Weather Stations